KMFI/MFI METAR and TAF weather

Enter ICAO airport designator
Station Type Date Time Source
KMFI METAR 2019/08/22 06:54 UTC NOAA

KMFI 220654Z AUTO 00000KT 10SM SCT060 BKN070 12/10 A3004 RMK AO2 SLP171 T01170100


Station Type Date Time Source
KMFI Decoded METAR 2019/08/22 06:54 UTC NOAA

Station name not available
Aug 22, 2019 - 02:54 AM EDT / 2019.08.22 0654 UTC
Wind: Calm:0
Visibility: 10 mile(s):0
Sky conditions: mostly cloudy
Temperature: 53.1 F (11.7 C)
Dew Point: 50.0 F (10.0 C)
Relative Humidity: 89%
Pressure (altimeter): 30.04 in. Hg (1017 hPa)
ob: KMFI 220654Z AUTO 00000KT 10SM SCT060 BKN070 12/10 A3004 RMK AO2 SLP171 T01170100
cycle: 7

Station Type Date Time Source
KMFI TAF UTC NOAA

Error!

Example: see airport list